sensor_id;sensor_type;location;lat;lon;timestamp;P1;durP1;ratioP1;P2;durP2;ratioP2
62353;SDS011;48391;49.184;2.418;2022-09-06T00:00:14;0.35;;;0.30;;
62353;SDS011;48391;49.184;2.418;2022-09-06T00:02:41;0.17;;;0.17;;
62353;SDS011;48391;49.184;2.418;2022-09-06T00:05:17;0.20;;;0.20;;
62353;SDS011;48391;49.184;2.418;2022-09-06T00:07:44;0.77;;;0.57;;
62353;SDS011;48391;49.184;2.418;2022-09-06T00:10:10;0.45;;;0.20;;
62353;SDS011;48391;49.184;2.418;2022-09-06T00:12:36;0.52;;;0.50;;
62353;SDS011;48391;49.184;2.418;2022-09-06T00:15:03;0.40;;;0.32;;
62353;SDS011;48391;49.184;2.418;2022-09-06T00:17:35;0.22;;;0.22;;
62353;SDS011;48391;49.184;2.418;2022-09-06T00:20:02;0.82;;;0.30;;
62353;SDS011;48391;49.184;2.418;2022-09-06T00:22:33;0.30;;;0.30;;
62353;SDS011;48391;49.184;2.418;2022-09-06T00:25:00;0.30;;;0.15;;
62353;SDS011;48391;49.184;2.418;2022-09-06T00:27:26;0.43;;;0.35;;
62353;SDS011;48391;49.184;2.418;2022-09-06T00:29:52;0.20;;;0.20;;
62353;SDS011;48391;49.184;2.418;2022-09-06T00:32:18;0.68;;;0.20;;
62353;SDS011;48391;49.184;2.418;2022-09-06T00:34:44;0.57;;;0.25;;
62353;SDS011;48391;49.184;2.418;2022-09-06T00:37:10;0.50;;;0.50;;
62353;SDS011;48391;49.184;2.418;2022-09-06T00:39:36;0.40;;;0.20;;
62353;SDS011;48391;49.184;2.418;2022-09-06T00:42:06;0.25;;;0.20;;
62353;SDS011;48391;49.184;2.418;2022-09-06T00:44:32;0.55;;;0.45;;
62353;SDS011;48391;49.184;2.418;2022-09-06T00:46:58;0.30;;;0.30;;
62353;SDS011;48391;49.184;2.418;2022-09-06T00:49:25;0.20;;;0.20;;
62353;SDS011;48391;49.184;2.418;2022-09-06T00:51:57;0.20;;;0.20;;
62353;SDS011;48391;49.184;2.418;2022-09-06T00:54:23;0.60;;;0.28;;
62353;SDS011;48391;49.184;2.418;2022-09-06T00:56:49;0.20;;;0.15;;
62353;SDS011;48391;49.184;2.418;2022-09-06T00:59:16;0.20;;;0.20;;
62353;SDS011;48391;49.184;2.418;2022-09-06T01:01:42;0.10;;;0.10;;
62353;SDS011;48391;49.184;2.418;2022-09-06T01:04:08;0.57;;;0.30;;
62353;SDS011;48391;49.184;2.418;2022-09-06T01:06:47;0.40;;;0.20;;
62353;SDS011;48391;49.184;2.418;2022-09-06T01:12:25;0.22;;;0.22;;
62353;SDS011;48391;49.184;2.418;2022-09-06T01:22:47;0.17;;;0.10;;
62353;SDS011;48391;49.184;2.418;2022-09-06T01:25:32;0.30;;;0.30;;
62353;SDS011;48391;49.184;2.418;2022-09-06T01:30:32;0.40;;;0.38;;
62353;SDS011;48391;49.184;2.418;2022-09-06T01:33:21;1.40;;;0.30;;
62353;SDS011;48391;49.184;2.418;2022-09-06T01:35:53;0.10;;;0.10;;
62353;SDS011;48391;49.184;2.418;2022-09-06T01:38:20;0.13;;;0.10;;
62353;SDS011;48391;49.184;2.418;2022-09-06T01:40:46;0.52;;;0.20;;
62353;SDS011;48391;49.184;2.418;2022-09-06T01:43:13;0.45;;;0.25;;
62353;SDS011;48391;49.184;2.418;2022-09-06T01:48:44;0.30;;;0.30;;
62353;SDS011;48391;49.184;2.418;2022-09-06T01:54:00;0.45;;;0.13;;
62353;SDS011;48391;49.184;2.418;2022-09-06T02:04:55;0.10;;;0.10;;
62353;SDS011;48391;49.184;2.418;2022-09-06T02:07:26;0.45;;;0.25;;
62353;SDS011;48391;49.184;2.418;2022-09-06T02:10:07;0.30;;;0.10;;
62353;SDS011;48391;49.184;2.418;2022-09-06T02:12:35;0.20;;;0.20;;
62353;SDS011;48391;49.184;2.418;2022-09-06T02:15:04;0.40;;;0.10;;
62353;SDS011;48391;49.184;2.418;2022-09-06T02:17:32;0.65;;;0.10;;
62353;SDS011;48391;49.184;2.418;2022-09-06T02:20:08;0.32;;;0.15;;
62353;SDS011;48391;49.184;2.418;2022-09-06T02:22:36;0.55;;;0.20;;
62353;SDS011;48391;49.184;2.418;2022-09-06T02:25:05;0.20;;;0.10;;
62353;SDS011;48391;49.184;2.418;2022-09-06T02:27:32;0.10;;;0.10;;
62353;SDS011;48391;49.184;2.418;2022-09-06T02:29:58;0.63;;;0.30;;
62353;SDS011;48391;49.184;2.418;2022-09-06T02:32:26;0.10;;;0.10;;
62353;SDS011;48391;49.184;2.418;2022-09-06T02:34:54;0.10;;;0.10;;
62353;SDS011;48391;49.184;2.418;2022-09-06T02:37:24;0.15;;;0.15;;
62353;SDS011;48391;49.184;2.418;2022-09-06T02:39:51;1.08;;;0.25;;
62353;SDS011;48391;49.184;2.418;2022-09-06T02:42:19;0.22;;;0.22;;
62353;SDS011;48391;49.184;2.418;2022-09-06T02:44:45;0.30;;;0.30;;
62353;SDS011;48391;49.184;2.418;2022-09-06T02:47:11;0.47;;;0.30;;
62353;SDS011;48391;49.184;2.418;2022-09-06T02:49:37;0.17;;;0.17;;
62353;SDS011;48391;49.184;2.418;2022-09-06T02:52:03;0.20;;;0.17;;
62353;SDS011;48391;49.184;2.418;2022-09-06T02:54:29;0.30;;;0.13;;
62353;SDS011;48391;49.184;2.418;2022-09-06T02:56:55;0.50;;;0.40;;
62353;SDS011;48391;49.184;2.418;2022-09-06T02:59:21;0.30;;;0.20;;
62353;SDS011;48391;49.184;2.418;2022-09-06T03:01:47;0.10;;;0.10;;
62353;SDS011;48391;49.184;2.418;2022-09-06T03:04:13;0.32;;;0.32;;
62353;SDS011;48391;49.184;2.418;2022-09-06T03:06:39;0.10;;;0.10;;
62353;SDS011;48391;49.184;2.418;2022-09-06T03:09:05;0.20;;;0.20;;
62353;SDS011;48391;49.184;2.418;2022-09-06T03:11:31;0.80;;;0.20;;
62353;SDS011;48391;49.184;2.418;2022-09-06T03:13:57;0.20;;;0.20;;
62353;SDS011;48391;49.184;2.418;2022-09-06T03:16:23;0.20;;;0.20;;
62353;SDS011;48391;49.184;2.418;2022-09-06T03:18:49;0.20;;;0.20;;
62353;SDS011;48391;49.184;2.418;2022-09-06T03:21:15;0.47;;;0.30;;
62353;SDS011;48391;49.184;2.418;2022-09-06T03:23:41;0.45;;;0.45;;
62353;SDS011;48391;49.184;2.418;2022-09-06T03:26:07;0.10;;;0.10;;
62353;SDS011;48391;49.184;2.418;2022-09-06T03:28:33;0.20;;;0.20;;
62353;SDS011;48391;49.184;2.418;2022-09-06T03:30:59;0.17;;;0.17;;
62353;SDS011;48391;49.184;2.418;2022-09-06T03:33:25;0.30;;;0.30;;
62353;SDS011;48391;49.184;2.418;2022-09-06T03:35:52;0.30;;;0.10;;
62353;SDS011;48391;49.184;2.418;2022-09-06T03:38:19;0.10;;;0.10;;
62353;SDS011;48391;49.184;2.418;2022-09-06T03:40:46;0.17;;;0.17;;
62353;SDS011;48391;49.184;2.418;2022-09-06T03:43:12;0.10;;;0.10;;
62353;SDS011;48391;49.184;2.418;2022-09-06T03:45:38;0.15;;;0.15;;
62353;SDS011;48391;49.184;2.418;2022-09-06T03:48:05;0.65;;;0.28;;
62353;SDS011;48391;49.184;2.418;2022-09-06T03:50:31;0.40;;;0.30;;
62353;SDS011;48391;49.184;2.418;2022-09-06T03:52:57;0.30;;;0.20;;
62353;SDS011;48391;49.184;2.418;2022-09-06T03:55:23;0.25;;;0.10;;
62353;SDS011;48391;49.184;2.418;2022-09-06T03:57:49;0.10;;;0.10;;
62353;SDS011;48391;49.184;2.418;2022-09-06T04:00:15;0.20;;;0.20;;
62353;SDS011;48391;49.184;2.418;2022-09-06T04:02:41;0.20;;;0.20;;
62353;SDS011;48391;49.184;2.418;2022-09-06T04:05:07;0.30;;;0.30;;
62353;SDS011;48391;49.184;2.418;2022-09-06T04:07:33;0.45;;;0.30;;
62353;SDS011;48391;49.184;2.418;2022-09-06T04:10:01;1.85;;;0.50;;
62353;SDS011;48391;49.184;2.418;2022-09-06T04:12:28;0.45;;;0.20;;
62353;SDS011;48391;49.184;2.418;2022-09-06T04:14:54;0.17;;;0.17;;
62353;SDS011;48391;49.184;2.418;2022-09-06T04:17:22;0.55;;;0.55;;
62353;SDS011;48391;49.184;2.418;2022-09-06T04:19:48;0.40;;;0.28;;
62353;SDS011;48391;49.184;2.418;2022-09-06T04:22:14;0.50;;;0.20;;
62353;SDS011;48391;49.184;2.418;2022-09-06T04:24:40;0.20;;;0.20;;
62353;SDS011;48391;49.184;2.418;2022-09-06T04:27:06;0.30;;;0.28;;
62353;SDS011;48391;49.184;2.418;2022-09-06T04:29:32;0.50;;;0.50;;
62353;SDS011;48391;49.184;2.418;2022-09-06T04:31:58;0.55;;;0.55;;
62353;SDS011;48391;49.184;2.418;2022-09-06T04:34:24;0.35;;;0.32;;
62353;SDS011;48391;49.184;2.418;2022-09-06T04:36:50;1.67;;;0.43;;
62353;SDS011;48391;49.184;2.418;2022-09-06T04:39:16;2.70;;;0.60;;
62353;SDS011;48391;49.184;2.418;2022-09-06T04:41:42;0.20;;;0.20;;
62353;SDS011;48391;49.184;2.418;2022-09-06T04:44:08;0.30;;;0.30;;
62353;SDS011;48391;49.184;2.418;2022-09-06T04:46:34;0.20;;;0.20;;
62353;SDS011;48391;49.184;2.418;2022-09-06T04:49:00;0.55;;;0.52;;
62353;SDS011;48391;49.184;2.418;2022-09-06T04:51:26;0.40;;;0.40;;
62353;SDS011;48391;49.184;2.418;2022-09-06T04:53:52;0.20;;;0.20;;
62353;SDS011;48391;49.184;2.418;2022-09-06T04:56:22;0.25;;;0.25;;
62353;SDS011;48391;49.184;2.418;2022-09-06T04:58:49;0.30;;;0.30;;
62353;SDS011;48391;49.184;2.418;2022-09-06T05:01:15;0.32;;;0.32;;
62353;SDS011;48391;49.184;2.418;2022-09-06T05:03:41;0.45;;;0.45;;
62353;SDS011;48391;49.184;2.418;2022-09-06T05:06:11;0.45;;;0.45;;
62353;SDS011;48391;49.184;2.418;2022-09-06T05:08:37;0.47;;;0.47;;
62353;SDS011;48391;49.184;2.418;2022-09-06T05:11:04;0.80;;;0.80;;
62353;SDS011;48391;49.184;2.418;2022-09-06T05:13:30;0.50;;;0.50;;
62353;SDS011;48391;49.184;2.418;2022-09-06T05:16:00;0.52;;;0.30;;
62353;SDS011;48391;49.184;2.418;2022-09-06T05:18:26;0.80;;;0.80;;
62353;SDS011;48391;49.184;2.418;2022-09-06T05:20:52;1.27;;;0.70;;
62353;SDS011;48391;49.184;2.418;2022-09-06T05:23:21;0.82;;;0.50;;
62353;SDS011;48391;49.184;2.418;2022-09-06T05:25:47;0.30;;;0.30;;
62353;SDS011;48391;49.184;2.418;2022-09-06T05:28:14;0.50;;;0.50;;
62353;SDS011;48391;49.184;2.418;2022-09-06T05:30:40;0.43;;;0.43;;
62353;SDS011;48391;49.184;2.418;2022-09-06T05:33:07;1.20;;;1.10;;
62353;SDS011;48391;49.184;2.418;2022-09-06T05:35:33;0.40;;;0.40;;
62353;SDS011;48391;49.184;2.418;2022-09-06T05:37:59;0.40;;;0.40;;
62353;SDS011;48391;49.184;2.418;2022-09-06T05:40:25;0.50;;;0.50;;
62353;SDS011;48391;49.184;2.418;2022-09-06T05:42:51;0.40;;;0.32;;
62353;SDS011;48391;49.184;2.418;2022-09-06T05:45:17;0.22;;;0.22;;
62353;SDS011;48391;49.184;2.418;2022-09-06T05:47:44;0.75;;;0.30;;
62353;SDS011;48391;49.184;2.418;2022-09-06T05:50:10;0.20;;;0.13;;
62353;SDS011;48391;49.184;2.418;2022-09-06T05:52:36;0.20;;;0.20;;
62353;SDS011;48391;49.184;2.418;2022-09-06T05:55:03;0.50;;;0.25;;
62353;SDS011;48391;49.184;2.418;2022-09-06T05:57:30;0.10;;;0.10;;
62353;SDS011;48391;49.184;2.418;2022-09-06T05:59:56;0.38;;;0.38;;
62353;SDS011;48391;49.184;2.418;2022-09-06T06:02:22;0.22;;;0.22;;
62353;SDS011;48391;49.184;2.418;2022-09-06T06:04:48;0.40;;;0.40;;
62353;SDS011;48391;49.184;2.418;2022-09-06T06:07:14;1.52;;;0.28;;
62353;SDS011;48391;49.184;2.418;2022-09-06T06:09:40;0.30;;;0.30;;
62353;SDS011;48391;49.184;2.418;2022-09-06T06:12:06;0.20;;;0.20;;
62353;SDS011;48391;49.184;2.418;2022-09-06T06:14:32;0.50;;;0.28;;
62353;SDS011;48391;49.184;2.418;2022-09-06T06:16:58;0.10;;;0.10;;
62353;SDS011;48391;49.184;2.418;2022-09-06T06:19:25;1.17;;;0.55;;
62353;SDS011;48391;49.184;2.418;2022-09-06T06:21:51;0.10;;;0.10;;
62353;SDS011;48391;49.184;2.418;2022-09-06T06:24:17;0.10;;;0.10;;
62353;SDS011;48391;49.184;2.418;2022-09-06T06:26:43;0.10;;;0.10;;
62353;SDS011;48391;49.184;2.418;2022-09-06T06:29:09;0.30;;;0.10;;
62353;SDS011;48391;49.184;2.418;2022-09-06T06:31:36;0.25;;;0.25;;
62353;SDS011;48391;49.184;2.418;2022-09-06T06:34:02;0.57;;;0.57;;
62353;SDS011;48391;49.184;2.418;2022-09-06T06:36:29;0.63;;;0.60;;
62353;SDS011;48391;49.184;2.418;2022-09-06T06:38:55;1.80;;;0.47;;
62353;SDS011;48391;49.184;2.418;2022-09-06T06:41:23;0.40;;;0.40;;
62353;SDS011;48391;49.184;2.418;2022-09-06T06:43:59;0.73;;;0.35;;
62353;SDS011;48391;49.184;2.418;2022-09-06T06:46:26;0.70;;;0.50;;
62353;SDS011;48391;49.184;2.418;2022-09-06T06:48:53;0.73;;;0.30;;
62353;SDS011;48391;49.184;2.418;2022-09-06T06:51:19;0.82;;;0.82;;
62353;SDS011;48391;49.184;2.418;2022-09-06T06:53:46;0.88;;;0.73;;
62353;SDS011;48391;49.184;2.418;2022-09-06T06:58:39;0.60;;;0.45;;
62353;SDS011;48391;49.184;2.418;2022-09-06T07:01:05;0.40;;;0.30;;
62353;SDS011;48391;49.184;2.418;2022-09-06T07:03:31;1.15;;;0.68;;
62353;SDS011;48391;49.184;2.418;2022-09-06T07:05:57;0.95;;;0.82;;
62353;SDS011;48391;49.184;2.418;2022-09-06T07:08:23;0.77;;;0.77;;
62353;SDS011;48391;49.184;2.418;2022-09-06T07:10:49;0.47;;;0.47;;
62353;SDS011;48391;49.184;2.418;2022-09-06T07:13:15;1.05;;;1.00;;
62353;SDS011;48391;49.184;2.418;2022-09-06T07:15:42;1.30;;;1.20;;
62353;SDS011;48391;49.184;2.418;2022-09-06T07:18:08;1.65;;;1.05;;
62353;SDS011;48391;49.184;2.418;2022-09-06T07:20:34;0.55;;;0.55;;
62353;SDS011;48391;49.184;2.418;2022-09-06T07:23:02;0.70;;;0.70;;
62353;SDS011;48391;49.184;2.418;2022-09-06T07:25:29;1.75;;;0.82;;
62353;SDS011;48391;49.184;2.418;2022-09-06T07:28:05;1.40;;;1.20;;
62353;SDS011;48391;49.184;2.418;2022-09-06T07:30:31;1.73;;;0.95;;
62353;SDS011;48391;49.184;2.418;2022-09-06T07:32:58;3.80;;;1.35;;
62353;SDS011;48391;49.184;2.418;2022-09-06T07:35:24;1.20;;;1.15;;
62353;SDS011;48391;49.184;2.418;2022-09-06T07:37:54;1.27;;;1.20;;
62353;SDS011;48391;49.184;2.418;2022-09-06T07:40:20;1.45;;;0.93;;
62353;SDS011;48391;49.184;2.418;2022-09-06T07:42:46;1.08;;;1.00;;
62353;SDS011;48391;49.184;2.418;2022-09-06T07:45:13;0.82;;;0.77;;
62353;SDS011;48391;49.184;2.418;2022-09-06T07:47:39;0.63;;;0.63;;
62353;SDS011;48391;49.184;2.418;2022-09-06T07:50:05;0.50;;;0.50;;
62353;SDS011;48391;49.184;2.418;2022-09-06T07:52:32;0.45;;;0.45;;
62353;SDS011;48391;49.184;2.418;2022-09-06T07:54:58;0.85;;;0.15;;
62353;SDS011;48391;49.184;2.418;2022-09-06T07:57:24;0.30;;;0.30;;
62353;SDS011;48391;49.184;2.418;2022-09-06T07:59:50;0.57;;;0.55;;
62353;SDS011;48391;49.184;2.418;2022-09-06T08:02:16;0.40;;;0.40;;
62353;SDS011;48391;49.184;2.418;2022-09-06T08:04:42;0.85;;;0.80;;
62353;SDS011;48391;49.184;2.418;2022-09-06T08:07:08;0.82;;;0.82;;
62353;SDS011;48391;49.184;2.418;2022-09-06T08:09:34;0.60;;;0.60;;
62353;SDS011;48391;49.184;2.418;2022-09-06T08:12:00;1.70;;;0.70;;
62353;SDS011;48391;49.184;2.418;2022-09-06T08:14:30;0.50;;;0.50;;
62353;SDS011;48391;49.184;2.418;2022-09-06T08:16:56;0.85;;;0.57;;
62353;SDS011;48391;49.184;2.418;2022-09-06T08:19:23;1.33;;;1.23;;
62353;SDS011;48391;49.184;2.418;2022-09-06T08:21:49;1.83;;;1.35;;
62353;SDS011;48391;49.184;2.418;2022-09-06T08:24:15;3.08;;;1.30;;
62353;SDS011;48391;49.184;2.418;2022-09-06T08:26:41;2.00;;;1.10;;
62353;SDS011;48391;49.184;2.418;2022-09-06T08:29:07;3.60;;;1.52;;
62353;SDS011;48391;49.184;2.418;2022-09-06T08:31:35;2.08;;;1.63;;
62353;SDS011;48391;49.184;2.418;2022-09-06T08:34:02;1.35;;;0.85;;
62353;SDS011;48391;49.184;2.418;2022-09-06T08:36:28;1.02;;;0.65;;
62353;SDS011;48391;49.184;2.418;2022-09-06T08:38:57;0.73;;;0.45;;
62353;SDS011;48391;49.184;2.418;2022-09-06T08:41:30;0.70;;;0.70;;
62353;SDS011;48391;49.184;2.418;2022-09-06T08:43:59;1.25;;;1.13;;
62353;SDS011;48391;49.184;2.418;2022-09-06T08:46:32;1.65;;;1.05;;
62353;SDS011;48391;49.184;2.418;2022-09-06T08:48:58;2.00;;;1.23;;
62353;SDS011;48391;49.184;2.418;2022-09-06T08:51:36;1.90;;;1.15;;
62353;SDS011;48391;49.184;2.418;2022-09-06T08:54:05;0.70;;;0.70;;
62353;SDS011;48391;49.184;2.418;2022-09-06T08:59:04;2.63;;;1.40;;
62353;SDS011;48391;49.184;2.418;2022-09-06T09:04:23;0.55;;;0.55;;
62353;SDS011;48391;49.184;2.418;2022-09-06T09:06:58;0.63;;;0.60;;
62353;SDS011;48391;49.184;2.418;2022-09-06T09:09:26;0.57;;;0.57;;
62353;SDS011;48391;49.184;2.418;2022-09-06T09:11:54;3.72;;;1.63;;
62353;SDS011;48391;49.184;2.418;2022-09-06T09:14:23;1.42;;;1.08;;
62353;SDS011;48391;49.184;2.418;2022-09-06T09:16:51;1.27;;;1.10;;
62353;SDS011;48391;49.184;2.418;2022-09-06T09:19:17;0.73;;;0.73;;
62353;SDS011;48391;49.184;2.418;2022-09-06T09:21:43;1.15;;;1.05;;
62353;SDS011;48391;49.184;2.418;2022-09-06T09:24:10;5.15;;;2.10;;
62353;SDS011;48391;49.184;2.418;2022-09-06T09:26:41;1.42;;;1.27;;
62353;SDS011;48391;49.184;2.418;2022-09-06T09:29:10;1.75;;;0.68;;
62353;SDS011;48391;49.184;2.418;2022-09-06T09:31:40;0.98;;;0.70;;
62353;SDS011;48391;49.184;2.418;2022-09-06T09:34:10;1.02;;;1.02;;
62353;SDS011;48391;49.184;2.418;2022-09-06T09:36:37;1.40;;;0.70;;
62353;SDS011;48391;49.184;2.418;2022-09-06T09:39:09;1.80;;;0.95;;
62353;SDS011;48391;49.184;2.418;2022-09-06T09:41:36;0.85;;;0.63;;
62353;SDS011;48391;49.184;2.418;2022-09-06T09:44:04;3.33;;;0.63;;
62353;SDS011;48391;49.184;2.418;2022-09-06T09:46:31;1.40;;;0.77;;
62353;SDS011;48391;49.184;2.418;2022-09-06T09:49:02;1.67;;;0.75;;
62353;SDS011;48391;49.184;2.418;2022-09-06T09:51:29;1.00;;;0.60;;
62353;SDS011;48391;49.184;2.418;2022-09-06T09:58:51;2.10;;;1.05;;
62353;SDS011;48391;49.184;2.418;2022-09-06T10:01:20;0.77;;;0.68;;
62353;SDS011;48391;49.184;2.418;2022-09-06T10:03:47;0.68;;;0.60;;
62353;SDS011;48391;49.184;2.418;2022-09-06T10:06:16;0.80;;;0.30;;
62353;SDS011;48391;49.184;2.418;2022-09-06T10:08:50;0.60;;;0.60;;
62353;SDS011;48391;49.184;2.418;2022-09-06T10:11:35;0.47;;;0.40;;
62353;SDS011;48391;49.184;2.418;2022-09-06T10:14:11;0.82;;;0.82;;
62353;SDS011;48391;49.184;2.418;2022-09-06T10:16:43;1.40;;;1.05;;
62353;SDS011;48391;49.184;2.418;2022-09-06T10:19:34;0.63;;;0.63;;
62353;SDS011;48391;49.184;2.418;2022-09-06T10:22:07;0.82;;;0.75;;
62353;SDS011;48391;49.184;2.418;2022-09-06T10:24:46;0.93;;;0.63;;
62353;SDS011;48391;49.184;2.418;2022-09-06T10:27:16;0.50;;;0.50;;
62353;SDS011;48391;49.184;2.418;2022-09-06T10:29:55;0.98;;;0.88;;
62353;SDS011;48391;49.184;2.418;2022-09-06T10:38:23;0.55;;;0.45;;
62353;SDS011;48391;49.184;2.418;2022-09-06T10:40:29;0.60;;;0.60;;
62353;SDS011;48391;49.184;2.418;2022-09-06T10:42:57;2.08;;;0.95;;
62353;SDS011;48391;49.184;2.418;2022-09-06T10:50:27;0.93;;;0.75;;
62353;SDS011;48391;49.184;2.418;2022-09-06T10:52:55;1.58;;;0.40;;
62353;SDS011;48391;49.184;2.418;2022-09-06T10:55:25;1.40;;;0.32;;
62353;SDS011;48391;49.184;2.418;2022-09-06T10:57:56;0.73;;;0.60;;
62353;SDS011;48391;49.184;2.418;2022-09-06T11:00:28;1.38;;;0.90;;
62353;SDS011;48391;49.184;2.418;2022-09-06T11:10:37;0.95;;;0.70;;
62353;SDS011;48391;49.184;2.418;2022-09-06T11:16:26;0.68;;;0.50;;
62353;SDS011;48391;49.184;2.418;2022-09-06T11:29:34;2.10;;;0.63;;
62353;SDS011;48391;49.184;2.418;2022-09-06T11:32:23;0.40;;;0.40;;
62353;SDS011;48391;49.184;2.418;2022-09-06T11:34:53;0.22;;;0.20;;
62353;SDS011;48391;49.184;2.418;2022-09-06T11:39:46;1.15;;;0.30;;
62353;SDS011;48391;49.184;2.418;2022-09-06T11:47:39;0.63;;;0.30;;
62353;SDS011;48391;49.184;2.418;2022-09-06T11:58:03;0.80;;;0.50;;
62353;SDS011;48391;49.184;2.418;2022-09-06T12:00:30;0.45;;;0.28;;
62353;SDS011;48391;49.184;2.418;2022-09-06T12:02:56;0.40;;;0.38;;
62353;SDS011;48391;49.184;2.418;2022-09-06T12:05:27;0.35;;;0.30;;
62353;SDS011;48391;49.184;2.418;2022-09-06T12:15:52;0.80;;;0.43;;
62353;SDS011;48391;49.184;2.418;2022-09-06T12:21:03;3.28;;;1.10;;
62353;SDS011;48391;49.184;2.418;2022-09-06T12:26:08;0.60;;;0.60;;
62353;SDS011;48391;49.184;2.418;2022-09-06T12:28:41;0.20;;;0.20;;
62353;SDS011;48391;49.184;2.418;2022-09-06T12:33:53;1.60;;;0.30;;
62353;SDS011;48391;49.184;2.418;2022-09-06T12:36:28;1.98;;;0.90;;
62353;SDS011;48391;49.184;2.418;2022-09-06T16:15:58;2.78;;;0.47;;
62353;SDS011;48391;49.184;2.418;2022-09-06T16:18:24;0.20;;;0.20;;
62353;SDS011;48391;49.184;2.418;2022-09-06T16:20:50;0.68;;;0.30;;
62353;SDS011;48391;49.184;2.418;2022-09-06T16:23:16;1.10;;;0.50;;
62353;SDS011;48391;49.184;2.418;2022-09-06T16:25:46;0.30;;;0.30;;
62353;SDS011;48391;49.184;2.418;2022-09-06T16:28:12;0.30;;;0.17;;
62353;SDS011;48391;49.184;2.418;2022-09-06T16:33:09;0.30;;;0.10;;
62353;SDS011;48391;49.184;2.418;2022-09-06T16:35:41;0.30;;;0.30;;
62353;SDS011;48391;49.184;2.418;2022-09-06T16:38:07;0.63;;;0.40;;
62353;SDS011;48391;49.184;2.418;2022-09-06T16:40:34;0.20;;;0.20;;
62353;SDS011;48391;49.184;2.418;2022-09-06T16:43:00;0.68;;;0.43;;
62353;SDS011;48391;49.184;2.418;2022-09-06T16:45:27;0.30;;;0.30;;
62353;SDS011;48391;49.184;2.418;2022-09-06T16:47:54;0.40;;;0.30;;
62353;SDS011;48391;49.184;2.418;2022-09-06T16:50:20;1.00;;;0.30;;
62353;SDS011;48391;49.184;2.418;2022-09-06T16:52:47;0.60;;;0.20;;
62353;SDS011;48391;49.184;2.418;2022-09-06T16:55:14;2.20;;;0.55;;
62353;SDS011;48391;49.184;2.418;2022-09-06T16:57:40;0.80;;;0.80;;
62353;SDS011;48391;49.184;2.418;2022-09-06T17:00:07;0.85;;;0.50;;
62353;SDS011;48391;49.184;2.418;2022-09-06T17:02:34;0.85;;;0.30;;
62353;SDS011;48391;49.184;2.418;2022-09-06T17:05:00;0.30;;;0.30;;
62353;SDS011;48391;49.184;2.418;2022-09-06T17:07:27;1.02;;;0.30;;
62353;SDS011;48391;49.184;2.418;2022-09-06T17:09:53;0.40;;;0.22;;
62353;SDS011;48391;49.184;2.418;2022-09-06T17:12:19;0.63;;;0.50;;
62353;SDS011;48391;49.184;2.418;2022-09-06T17:14:45;1.65;;;0.28;;
62353;SDS011;48391;49.184;2.418;2022-09-06T17:17:11;0.57;;;0.40;;
62353;SDS011;48391;49.184;2.418;2022-09-06T17:19:39;0.65;;;0.38;;
62353;SDS011;48391;49.184;2.418;2022-09-06T17:22:09;1.20;;;0.35;;
62353;SDS011;48391;49.184;2.418;2022-09-06T17:24:36;1.20;;;0.32;;
62353;SDS011;48391;49.184;2.418;2022-09-06T17:27:03;0.75;;;0.32;;
62353;SDS011;48391;49.184;2.418;2022-09-06T17:29:29;1.65;;;0.60;;
62353;SDS011;48391;49.184;2.418;2022-09-06T17:31:57;0.20;;;0.20;;
62353;SDS011;48391;49.184;2.418;2022-09-06T17:34:24;1.38;;;0.88;;
62353;SDS011;48391;49.184;2.418;2022-09-06T17:36:50;0.17;;;0.17;;
62353;SDS011;48391;49.184;2.418;2022-09-06T17:39:17;0.50;;;0.40;;
62353;SDS011;48391;49.184;2.418;2022-09-06T17:41:48;3.15;;;0.38;;
62353;SDS011;48391;49.184;2.418;2022-09-06T17:44:16;0.50;;;0.20;;
62353;SDS011;48391;49.184;2.418;2022-09-06T17:46:43;2.47;;;0.35;;
62353;SDS011;48391;49.184;2.418;2022-09-06T17:49:09;2.03;;;0.30;;
62353;SDS011;48391;49.184;2.418;2022-09-06T17:51:36;0.82;;;0.20;;
62353;SDS011;48391;49.184;2.418;2022-09-06T17:54:03;0.30;;;0.30;;
62353;SDS011;48391;49.184;2.418;2022-09-06T17:56:30;0.73;;;0.50;;
62353;SDS011;48391;49.184;2.418;2022-09-06T17:59:00;0.40;;;0.20;;
62353;SDS011;48391;49.184;2.418;2022-09-06T18:03:53;0.63;;;0.50;;
62353;SDS011;48391;49.184;2.418;2022-09-06T18:06:20;0.55;;;0.50;;
62353;SDS011;48391;49.184;2.418;2022-09-06T18:08:47;0.40;;;0.40;;
62353;SDS011;48391;49.184;2.418;2022-09-06T18:11:15;0.98;;;0.20;;
62353;SDS011;48391;49.184;2.418;2022-09-06T18:13:42;4.03;;;0.50;;
62353;SDS011;48391;49.184;2.418;2022-09-06T18:16:09;0.40;;;0.32;;
62353;SDS011;48391;49.184;2.418;2022-09-06T18:18:36;0.50;;;0.50;;
62353;SDS011;48391;49.184;2.418;2022-09-06T18:21:02;0.50;;;0.35;;
62353;SDS011;48391;49.184;2.418;2022-09-06T18:23:31;0.95;;;0.35;;
62353;SDS011;48391;49.184;2.418;2022-09-06T18:25:58;0.57;;;0.57;;
62353;SDS011;48391;49.184;2.418;2022-09-06T18:28:28;0.38;;;0.38;;
62353;SDS011;48391;49.184;2.418;2022-09-06T18:31:05;0.43;;;0.43;;
62353;SDS011;48391;49.184;2.418;2022-09-06T18:33:32;1.45;;;0.52;;
62353;SDS011;48391;49.184;2.418;2022-09-06T18:35:58;0.25;;;0.25;;
62353;SDS011;48391;49.184;2.418;2022-09-06T18:38:25;2.15;;;0.38;;
62353;SDS011;48391;49.184;2.418;2022-09-06T18:40:52;1.83;;;0.73;;
62353;SDS011;48391;49.184;2.418;2022-09-06T18:43:18;0.88;;;0.35;;
62353;SDS011;48391;49.184;2.418;2022-09-06T18:45:46;0.73;;;0.68;;
62353;SDS011;48391;49.184;2.418;2022-09-06T18:48:13;0.20;;;0.20;;
62353;SDS011;48391;49.184;2.418;2022-09-06T18:50:40;0.40;;;0.30;;
62353;SDS011;48391;49.184;2.418;2022-09-06T18:53:06;0.30;;;0.30;;
62353;SDS011;48391;49.184;2.418;2022-09-06T18:55:36;0.63;;;0.45;;
62353;SDS011;48391;49.184;2.418;2022-09-06T18:58:03;2.40;;;0.85;;
62353;SDS011;48391;49.184;2.418;2022-09-06T19:00:30;0.93;;;0.50;;
62353;SDS011;48391;49.184;2.418;2022-09-06T19:02:56;2.58;;;0.70;;
62353;SDS011;48391;49.184;2.418;2022-09-06T19:05:22;3.50;;;0.43;;
62353;SDS011;48391;49.184;2.418;2022-09-06T19:07:48;1.08;;;0.63;;
62353;SDS011;48391;49.184;2.418;2022-09-06T19:10:14;4.53;;;0.35;;
62353;SDS011;48391;49.184;2.418;2022-09-06T19:12:41;1.95;;;0.38;;
62353;SDS011;48391;49.184;2.418;2022-09-06T19:15:07;2.28;;;0.90;;
62353;SDS011;48391;49.184;2.418;2022-09-06T19:17:34;1.50;;;0.50;;
62353;SDS011;48391;49.184;2.418;2022-09-06T19:20:01;1.77;;;0.45;;
62353;SDS011;48391;49.184;2.418;2022-09-06T19:22:28;0.40;;;0.30;;
62353;SDS011;48391;49.184;2.418;2022-09-06T19:24:54;2.72;;;0.55;;
62353;SDS011;48391;49.184;2.418;2022-09-06T19:27:20;0.88;;;0.40;;
62353;SDS011;48391;49.184;2.418;2022-09-06T19:29:46;0.68;;;0.40;;
62353;SDS011;48391;49.184;2.418;2022-09-06T19:32:13;0.30;;;0.20;;
62353;SDS011;48391;49.184;2.418;2022-09-06T19:40:52;1.43;;;0.40;;
62353;SDS011;48391;49.184;2.418;2022-09-06T19:43:51;0.30;;;0.20;;
62353;SDS011;48391;49.184;2.418;2022-09-06T19:46:41;1.08;;;0.20;;
62353;SDS011;48391;49.184;2.418;2022-09-06T19:49:37;0.77;;;0.20;;
62353;SDS011;48391;49.184;2.418;2022-09-06T19:52:07;0.55;;;0.10;;
62353;SDS011;48391;49.184;2.418;2022-09-06T19:54:44;0.55;;;0.30;;
62353;SDS011;48391;49.184;2.418;2022-09-06T19:57:20;3.83;;;0.20;;
62353;SDS011;48391;49.184;2.418;2022-09-06T19:59:58;1.63;;;0.20;;
62353;SDS011;48391;49.184;2.418;2022-09-06T20:02:26;1.02;;;0.30;;
62353;SDS011;48391;49.184;2.418;2022-09-06T20:04:52;0.90;;;0.30;;
62353;SDS011;48391;49.184;2.418;2022-09-06T20:07:22;0.77;;;0.13;;
62353;SDS011;48391;49.184;2.418;2022-09-06T20:09:52;0.20;;;0.10;;
62353;SDS011;48391;49.184;2.418;2022-09-06T20:12:18;1.15;;;0.50;;
62353;SDS011;48391;49.184;2.418;2022-09-06T20:15:15;0.73;;;0.25;;
62353;SDS011;48391;49.184;2.418;2022-09-06T20:17:50;0.93;;;0.30;;
62353;SDS011;48391;49.184;2.418;2022-09-06T20:20:24;1.15;;;0.28;;
62353;SDS011;48391;49.184;2.418;2022-09-06T20:22:50;1.38;;;0.32;;
62353;SDS011;48391;49.184;2.418;2022-09-06T20:28:30;1.35;;;0.20;;